Mikiona — WDD5057 — position and weather

sailwx.info

Track history (hours):
 
Tides and Currents Weather Stations Pressure Air Temp Water Temp Dewpoint Dewpoint Depression Visibility Wind Speed Wind Dir Waves Ship Positions

Mikiona

Owner: Sause Bros Inc, Coos Bay, OR. More information available from US FCC via Universal Licensing System and Coast Guard Vessel Documentation Center.

Last reported at 2018-Apr-25 21:58 UTC. Time now 2018-Apr-25 22:04 UTC.
Position N 33°46' W 118°13'.

Length 38 m; draft 4.5 m.

Type: Towing. MMSI: 367153070.

Date/timePositionNaut miles runAvg speedWind from/ knotsBaromVisibWave heightAir tempDewpointWater temp
2018-Apr-25 21:58N 33°46' W 118°13'0 0.0
2018-Apr-25 21:28N 33°46' W 118°13'0 0.0
2018-Apr-25 20:55N 33°46' W 118°13'0 0.0
2018-Apr-25 20:28N 33°46' W 118°13'0 0.0
2018-Apr-25 19:55N 33°46' W 118°13'0 0.0
2018-Apr-25 19:28N 33°46' W 118°13'0 0.0
2018-Apr-25 18:58N 33°46' W 118°13'0 0.0
2018-Apr-25 18:28N 33°46' W 118°13'0 0.0
2018-Apr-25 17:58N 33°46' W 118°13'0 0.0
2018-Apr-25 17:28N 33°46' W 118°13'0 0.0
2018-Apr-25 16:55N 33°46' W 118°13'0 0.0
2018-Apr-25 16:28N 33°46' W 118°13'0 0.0
2018-Apr-25 15:55N 33°46' W 118°13'0 0.0
2018-Apr-25 15:28N 33°46' W 118°13'0 0.1
2018-Apr-25 15:00N 33°46' W 118°13'3 6.1
2018-Apr-25 14:30N 33°43' W 118°14'3 5.5
2018-Apr-25 14:00N 33°45' W 118°16'1 1.4
2018-Apr-25 13:30N 33°46' W 118°16'1 1.1
2018-Apr-25 13:01N 33°45' W 118°16'2 3.5
2018-Apr-25 12:30N 33°44' W 118°16'2 2.9
2018-Apr-25 11:47N 33°44' W 118°14'0 0.2
2018-Apr-25 11:29N 33°44' W 118°14'0 0.2
2018-Apr-25 10:59N 33°44' W 118°14'0 0.0
2018-Apr-25 10:30N 33°44' W 118°14'0 0.0
2018-Apr-25 10:00N 33°44' W 118°14'0 0.0
2018-Apr-25 09:12N 33°44' W 118°14'0 0.1
2018-Apr-25 08:51N 33°44' W 118°14'0 0.0
2018-Apr-25 08:24N 33°44' W 118°14'0 0.0
2018-Apr-25 07:45N 33°44' W 118°14'0 0.1
2018-Apr-25 07:21N 33°44' W 118°14'0 0.0
2018-Apr-25 06:57N 33°44' W 118°14'0 0.0
2018-Apr-25 06:30N 33°44' W 118°14'0 0.0
2018-Apr-25 05:54N 33°44' W 118°14'0 0.0
2018-Apr-25 05:30N 33°44' W 118°14'0 0.0
2018-Apr-25 05:00N 33°44' W 118°14'0 0.1
2018-Apr-25 04:27N 33°44' W 118°14'0 0.1
2018-Apr-25 03:57N 33°44' W 118°14'0 0.0
2018-Apr-25 03:30N 33°44' W 118°14'0 0.0
2018-Apr-25 02:57N 33°44' W 118°14'0 0.0
2018-Apr-25 02:30N 33°44' W 118°14'0 0.0
2018-Apr-25 02:00N 33°44' W 118°14'0 0.0
2018-Apr-25 01:30N 33°44' W 118°14'0 0.0
2018-Apr-25 01:00N 33°44' W 118°14'0 0.0
2018-Apr-25 00:30N 33°44' W 118°14'0 0.0
2018-Apr-25 00:00N 33°44' W 118°14'0 0.0
2018-Apr-24 23:30N 33°44' W 118°14'0 0.0
2018-Apr-24 23:00N 33°44' W 118°14'0 0.0
2018-Apr-24 22:30N 33°44' W 118°14'0 0.0
2018-Apr-24 22:00N 33°44' W 118°14'0 0.0
2018-Apr-24 21:30N 33°44' W 118°14'0 0.3
2018-Apr-24 21:00N 33°44' W 118°14'0 0.0
2018-Apr-24 20:30N 33°44' W 118°14'0 0.0
2018-Apr-24 20:00N 33°44' W 118°14'0 0.1
2018-Apr-24 19:30N 33°44' W 118°14'1 1.1
2018-Apr-24 19:00N 33°44' W 118°13'2 5.0
2018-Apr-24 18:30N 33°43' W 118°11'4 7.6
2018-Apr-24 18:00N 33°39' W 118°12'19 7.8
2018-Apr-24 15:32N 33°36' W 118°34'0 7.8
2018-Apr-24 15:29N 33°36' W 118°35'4 7.8
2018-Apr-24 15:00N 33°36' W 118°39'4 8.1
2018-Apr-24 14:30N 33°37' W 118°44'4 8.5
2018-Apr-24 14:00N 33°37' W 118°49'4 8.3
2018-Apr-24 13:30N 33°37' W 118°54'4 7.8
2018-Apr-24 13:00N 33°38' W 118°59'4 8.3
2018-Apr-24 12:30N 33°38' W 119°04'4 8.4
2018-Apr-24 11:59N 33°39' W 119°09'4 8.5
2018-Apr-24 11:30N 33°39' W 119°14'4 8.6
2018-Apr-24 11:00N 33°39' W 119°19'4 8.5
2018-Apr-24 10:30N 33°40' W 119°24'4 8.3
2018-Apr-24 10:00N 33°40' W 119°29'4 8.1
2018-Apr-24 09:29N 33°40' W 119°34'4 7.8
2018-Apr-24 09:00N 33°41' W 119°39'4 8.1
2018-Apr-24 08:30N 33°41' W 119°43'4 8.1
2018-Apr-24 08:00N 33°41' W 119°48'4 8.0
2018-Apr-24 07:29N 33°42' W 119°53'4 8.4
2018-Apr-24 07:00N 33°42' W 119°58'4 8.6
2018-Apr-24 06:30N 33°42' W 120°03'5 8.4
2018-Apr-24 05:57N 33°43' W 120°09'4 8.5
2018-Apr-24 05:30N 33°44' W 120°13'4 8.4
2018-Apr-24 05:00N 33°46' W 120°18'4 8.3
2018-Apr-24 04:30N 33°48' W 120°22'5 8.1
2018-Apr-24 03:57N 33°50' W 120°27'4 8.0
2018-Apr-24 03:27N 33°52' W 120°31'4 8.2
2018-Apr-24 03:00N 33°54' W 120°35'4 8.6
2018-Apr-24 02:30N 33°56' W 120°39'4 9.1
2018-Apr-24 02:00N 33°59' W 120°44'4 8.6
2018-Apr-24 01:30N 34°01' W 120°48'4 8.8
2018-Apr-24 01:00N 34°04' W 120°52'4 8.9
2018-Apr-24 00:30N 34°08' W 120°55'5 9.0
2018-Apr-24 00:00N 34°11' W 120°58'5 9.2
2018-Apr-23 23:30N 34°15' W 121°01'5 9.2
2018-Apr-23 23:00N 34°19' W 121°04'4 8.7
2018-Apr-23 22:30N 34°22' W 121°08'4 8.5
2018-Apr-23 22:00N 34°26' W 121°11'4 8.6
2018-Apr-23 21:30N 34°30' W 121°13'4 8.6
2018-Apr-23 21:00N 34°33' W 121°15'4 8.2
2018-Apr-23 20:30N 34°37' W 121°18'4 8.4
2018-Apr-23 20:00N 34°40' W 121°21'4 8.9
2018-Apr-23 19:30N 34°44' W 121°24'5 9.0
2018-Apr-23 19:00N 34°48' W 121°27'6 9.0
2018-Apr-23 18:18N 34°53' W 121°31'3 8.9
2018-Apr-23 18:00N 34°55' W 121°33'4 8.8
2018-Apr-23 17:30N 34°59' W 121°36'4 8.6
2018-Apr-23 17:00N 35°03' W 121°38'4 8.5
2018-Apr-23 16:30N 35°06' W 121°41'4 8.2
2018-Apr-23 16:00N 35°10' W 121°44'21 8.5
2018-Apr-23 13:33N 35°27' W 121°58'1 8.8
2018-Apr-23 13:25N 35°28' W 121°59'24 8.5
2018-Apr-23 10:38N 35°47' W 122°16'1 8.6
2018-Apr-23 10:30N 35°48' W 122°17'5 8.7
2018-Apr-23 09:54N 35°53' W 122°20'3 8.4
2018-Apr-23 09:30N 35°56' W 122°22'5 8.4
2018-Apr-23 08:54N 35°60' W 122°26'3 8.4
2018-Apr-23 08:29N 36°03' W 122°28'4 8.3
2018-Apr-23 08:00N 36°06' W 122°31'22 8.2
2018-Apr-23 05:19N 36°26' W 122°41'3 8.6
2018-Apr-23 05:00N 36°29' W 122°42'4 8.4
2018-Apr-23 04:30N 36°33' W 122°44'4 8.2
2018-Apr-23 04:00N 36°37' W 122°46'4 8.6
2018-Apr-23 03:30N 36°41' W 122°48'4 8.5
2018-Apr-23 03:00N 36°44' W 122°51'4 8.3
2018-Apr-23 02:30N 36°48' W 122°53'4 8.5
2018-Apr-23 02:00N 36°52' W 122°55'6 8.7
2018-Apr-23 01:16N 36°58' W 122°58'2 8.4
2018-Apr-23 01:00N 36°60' W 122°59'4 8.3
2018-Apr-23 00:30N 37°04' W 123°00'4 8.4
2018-Apr-23 00:00N 37°08' W 123°01'4 8.4
2018-Apr-22 23:30N 37°12' W 123°02'4 8.4
2018-Apr-22 23:00N 37°16' W 123°03'4 8.2
2018-Apr-22 22:30N 37°20' W 123°03'4 8.3
2018-Apr-22 22:00N 37°25' W 123°04'4 8.3
2018-Apr-22 21:30N 37°29' W 123°04'4 8.3
2018-Apr-22 21:00N 37°33' W 123°04'3 6.9
2018-Apr-22 20:30N 37°36' W 123°02'4 7.6
2018-Apr-22 19:59N 37°38' W 122°58'4 7.6
2018-Apr-22 19:29N 37°40' W 122°54'4 7.6
2018-Apr-22 19:00N 37°42' W 122°50'4 7.2
2018-Apr-22 18:30N 37°44' W 122°46'3 6.2
2018-Apr-22 18:00N 37°45' W 122°43'3 6.9
2018-Apr-22 17:30N 37°46' W 122°38'4 7.6
2018-Apr-22 17:00N 37°47' W 122°34'5 9.7
2018-Apr-22 16:30N 37°49' W 122°28'4 7.4
2018-Apr-22 16:00N 37°52' W 122°25'2 3.6
2018-Apr-22 15:31N 37°54' W 122°26'1 2.0
2018-Apr-22 15:00N 37°55' W 122°25'1 1.9
2018-Apr-22 14:30N 37°55' W 122°25'0 0.5
2018-Apr-22 14:00N 37°55' W 122°24'0 0.1
2018-Apr-22 13:29N 37°55' W 122°25'0 0.0
2018-Apr-22 12:59N 37°55' W 122°25'0 0.0
2018-Apr-22 12:29N 37°55' W 122°25'0 0.0
2018-Apr-22 11:59N 37°55' W 122°25'0 0.0
2018-Apr-22 11:29N 37°55' W 122°25'0 0.0
2018-Apr-22 10:59N 37°55' W 122°25'0 0.0
2018-Apr-22 10:29N 37°55' W 122°25'0 0.0
2018-Apr-22 09:59N 37°55' W 122°25'0 0.0
2018-Apr-22 09:29N 37°55' W 122°25'0 0.0
2018-Apr-22 08:59N 37°55' W 122°25'0 0.0
2018-Apr-22 08:29N 37°55' W 122°25'0 0.0
2018-Apr-22 07:56N 37°55' W 122°25'0 0.0
2018-Apr-22 07:29N 37°55' W 122°25'0 0.0
2018-Apr-22 06:59N 37°55' W 122°25'0 0.0
2018-Apr-22 06:26N 37°55' W 122°25'0 0.0
2018-Apr-22 05:59N 37°55' W 122°25'0 0.0
2018-Apr-22 05:29N 37°55' W 122°25'0 0.0
2018-Apr-22 04:59N 37°55' W 122°25'0 0.0
2018-Apr-22 04:26N 37°55' W 122°25'0 0.0
2018-Apr-22 03:56N 37°55' W 122°25'0 0.0
2018-Apr-22 03:29N 37°55' W 122°25'0 0.0
2018-Apr-22 02:59N 37°55' W 122°25'0 0.0
2018-Apr-22 02:29N 37°55' W 122°25'0 0.0
2018-Apr-22 01:59N 37°55' W 122°25'0 0.0
2018-Apr-22 01:29N 37°55' W 122°25'0 0.0
2018-Apr-22 00:59N 37°55' W 122°25'0 0.0
2018-Apr-22 00:29N 37°55' W 122°25'0 0.0
2018-Apr-21 23:59N 37°55' W 122°25'0 0.0
2018-Apr-21 23:26N 37°55' W 122°25'0 0.0
2018-Apr-21 22:59N 37°55' W 122°25'0 0.0
2018-Apr-21 22:26N 37°55' W 122°25'0 0.0
2018-Apr-21 21:59N 37°55' W 122°25'0 0.0
2018-Apr-21 21:29N 37°55' W 122°25'0 0.0
2018-Apr-21 20:53N 37°55' W 122°25'0 0.0
2018-Apr-21 20:29N 37°55' W 122°25'0 0.0
2018-Apr-21 19:56N 37°55' W 122°25'0 0.0
2018-Apr-21 19:29N 37°55' W 122°25'0 0.0
2018-Apr-21 18:59N 37°55' W 122°25'0 0.0
2018-Apr-21 18:29N 37°55' W 122°25'0 0.0
2018-Apr-21 17:53N 37°55' W 122°25'0 0.0
2018-Apr-21 17:26N 37°55' W 122°25'0 0.2
2018-Apr-21 17:00N 37°55' W 122°24'0 0.8
2018-Apr-21 16:30N 37°55' W 122°25'1 1.2
2018-Apr-21 16:00N 37°55' W 122°25'1 2.6
2018-Apr-21 15:30N 37°54' W 122°23'1 2.5
2018-Apr-21 15:00N 37°55' W 122°22'0 0.0
2018-Apr-21 14:30N 37°55' W 122°22'0 0.0
2018-Apr-21 14:00N 37°55' W 122°22'0 0.0
2018-Apr-21 13:30N 37°55' W 122°22'0 0.0
2018-Apr-21 13:00N 37°55' W 122°22'0 0.0
2018-Apr-21 12:30N 37°55' W 122°22'0 0.0
2018-Apr-21 12:00N 37°55' W 122°22'0 0.0
2018-Apr-21 11:30N 37°55' W 122°22'0 0.0
2018-Apr-21 11:00N 37°55' W 122°22'0 0.0
2018-Apr-21 10:30N 37°55' W 122°22'0 0.0
2018-Apr-21 10:00N 37°55' W 122°22'0 0.0
2018-Apr-21 09:30N 37°55' W 122°22'0 0.0
2018-Apr-21 09:00N 37°55' W 122°22'0 0.0
2018-Apr-21 08:30N 37°55' W 122°22'0 0.0
2018-Apr-21 08:00N 37°55' W 122°22'0 0.0
2018-Apr-21 07:30N 37°55' W 122°22'0 0.0
2018-Apr-21 07:00N 37°55' W 122°22'0 0.0
2018-Apr-21 06:30N 37°55' W 122°22'0 0.0
2018-Apr-21 06:00N 37°55' W 122°22'0 0.0
2018-Apr-21 05:30N 37°55' W 122°22'0 0.0
2018-Apr-21 05:00N 37°55' W 122°22'0 0.0
2018-Apr-21 04:30N 37°55' W 122°22'0 0.0
2018-Apr-21 04:00N 37°55' W 122°22'0 0.0
2018-Apr-21 03:30N 37°55' W 122°22'0 0.0
2018-Apr-21 03:00N 37°55' W 122°22'0 0.0
2018-Apr-21 02:30N 37°55' W 122°22'0 0.0
2018-Apr-21 02:00N 37°55' W 122°22'0 0.0
2018-Apr-21 01:30N 37°55' W 122°22'0 0.0
2018-Apr-21 01:00N 37°55' W 122°22'0 0.0
2018-Apr-21 00:30N 37°55' W 122°22'0 0.0
2018-Apr-21 00:00N 37°55' W 122°22'0 0.0
2018-Apr-20 23:30N 37°55' W 122°22'0 0.0
2018-Apr-20 23:00N 37°55' W 122°22'0 0.0
2018-Apr-20 22:31N 37°55' W 122°22'0 0.0
2018-Apr-20 22:01N 37°55' W 122°22'0 0.0
2018-Apr-20 21:30N 37°55' W 122°22'0 0.0
2018-Apr-20 21:00N 37°55' W 122°22'0 0.0
2018-Apr-20 20:30N 37°55' W 122°22'0 0.0
2018-Apr-20 20:00N 37°55' W 122°22'0 0.0
2018-Apr-20 19:30N 37°55' W 122°22'0 0.0
2018-Apr-20 19:00N 37°55' W 122°22'0 0.0
2018-Apr-20 18:30N 37°55' W 122°22'0 0.0
2018-Apr-20 18:00N 37°55' W 122°22'0 0.0
2018-Apr-20 17:30N 37°55' W 122°22'0 0.0
2018-Apr-20 17:00N 37°55' W 122°22'0 0.0
2018-Apr-20 16:30N 37°55' W 122°22'0 0.0
2018-Apr-20 16:00N 37°55' W 122°22'0 0.0
2018-Apr-20 15:30N 37°55' W 122°22'0 0.0
2018-Apr-20 15:00N 37°55' W 122°22'0 0.0
2018-Apr-20 14:30N 37°55' W 122°22'0 0.0
2018-Apr-20 14:00N 37°55' W 122°22'0 0.0
2018-Apr-20 13:30N 37°55' W 122°22'0 0.0
2018-Apr-20 13:00N 37°55' W 122°22'0 0.0
2018-Apr-20 12:30N 37°55' W 122°22'0 0.0
2018-Apr-20 12:00N 37°55' W 122°22'0 0.0
2018-Apr-20 11:30N 37°55' W 122°22'0 0.0
2018-Apr-20 11:00N 37°55' W 122°22'0 0.0
2018-Apr-20 10:30N 37°55' W 122°22'0 0.0
2018-Apr-20 10:00N 37°55' W 122°22'0 0.0
2018-Apr-20 09:30N 37°55' W 122°22'0 0.0
2018-Apr-20 09:00N 37°55' W 122°22'0 0.0
2018-Apr-20 08:30N 37°55' W 122°22'0 0.0
2018-Apr-20 08:00N 37°55' W 122°22'0 0.0
2018-Apr-20 07:30N 37°55' W 122°22'0 0.0
2018-Apr-20 07:00N 37°55' W 122°22'0 0.0
2018-Apr-20 06:30N 37°55' W 122°22'0 0.0
2018-Apr-20 06:00N 37°55' W 122°22'0 0.0
2018-Apr-20 05:30N 37°55' W 122°22'0 0.0
2018-Apr-20 05:00N 37°55' W 122°22'0 0.0
2018-Apr-20 04:30N 37°55' W 122°22'0 0.0
2018-Apr-20 04:00N 37°55' W 122°22'0 0.0
2018-Apr-20 03:31N 37°55' W 122°22'0 0.0
2018-Apr-20 03:00N 37°55' W 122°22'0 0.0
2018-Apr-20 02:30N 37°55' W 122°22'0 0.0
2018-Apr-20 02:00N 37°55' W 122°22'0 0.0
2018-Apr-20 01:30N 37°55' W 122°22'0 0.0
2018-Apr-20 01:00N 37°55' W 122°22'0 0.0
2018-Apr-20 00:30N 37°55' W 122°22'0 0.0
2018-Apr-20 00:00N 37°55' W 122°22'0 0.0
2018-Apr-19 23:30N 37°55' W 122°22'0 0.0
2018-Apr-19 23:00N 37°55' W 122°22'0 0.0
2018-Apr-19 22:30N 37°55' W 122°22'0 0.0
2018-Apr-19 22:00N 37°55' W 122°22'0 0.0
2018-Apr-19 21:30N 37°55' W 122°22'0 0.0
2018-Apr-19 21:00N 37°55' W 122°22'0 0.0
2018-Apr-19 20:30N 37°55' W 122°22'0 0.0
2018-Apr-19 20:00N 37°55' W 122°22'0 0.0
2018-Apr-19 19:30N 37°55' W 122°22'0 0.0
2018-Apr-19 19:00N 37°55' W 122°22'0 0.3
2018-Apr-19 18:30N 37°55' W 122°22'2 3.5
2018-Apr-19 18:00N 37°54' W 122°24'1 2.9
2018-Apr-19 17:30N 37°55' W 122°26'0 0.3
2018-Apr-19 17:00N 37°54' W 122°26'0 0.0
2018-Apr-19 16:30N 37°54' W 122°26'0 0.1
2018-Apr-19 16:00N 37°55' W 122°26'1 1.1
2018-Apr-19 15:30N 37°54' W 122°26'0 0.0
2018-Apr-19 15:00N 37°54' W 122°26'0 0.1
2018-Apr-19 14:30N 37°54' W 122°26'0 0.1
2018-Apr-19 14:00N 37°54' W 122°26'0 0.1
2018-Apr-19 13:31N 37°54' W 122°26'0 0.1
2018-Apr-19 13:00N 37°54' W 122°26'3 6.6
2018-Apr-19 12:30N 37°51' W 122°24'3 6.6
2018-Apr-19 12:00N 37°49' W 122°28'3 5.2
2018-Apr-19 11:30N 37°48' W 122°31'4 7.3
2018-Apr-19 11:00N 37°46' W 122°35'4 8.4
2018-Apr-19 10:30N 37°45' W 122°40'4 8.8
2018-Apr-19 10:00N 37°42' W 122°44'4 7.9
2018-Apr-19 09:30N 37°40' W 122°48'4 7.9
2018-Apr-19 09:00N 37°37' W 122°52'4 8.2
2018-Apr-19 08:30N 37°35' W 122°56'4 8.3
2018-Apr-19 08:00N 37°32' W 123°00'198 7.7
2018-Apr-18 06:23N 34°34' W 121°14'3 6.0
2018-Apr-18 05:52N 34°31' W 121°12'4 5.9
2018-Apr-18 05:13N 34°28' W 121°10'1 5.7
2018-Apr-18 05:00N 34°27' W 121°09'3 5.3
2018-Apr-18 04:27N 34°25' W 121°07'2 5.1
2018-Apr-18 04:00N 34°23' W 121°06'3 5.3
2018-Apr-18 03:30N 34°20' W 121°04'3 5.4
2018-Apr-18 03:00N 34°18' W 121°02'3 5.3
2018-Apr-18 02:30N 34°16' W 121°01'3 5.3
2018-Apr-18 02:00N 34°14' W 120°59'3 5.5
2018-Apr-18 01:30N 34°11' W 120°57'3 5.6
2018-Apr-18 01:00N 34°09' W 120°55'3 5.8
2018-Apr-18 00:30N 34°06' W 120°54'3 5.9
2018-Apr-18 00:00N 34°04' W 120°52'3 5.8
2018-Apr-17 23:30N 34°02' W 120°49'3 5.3
2018-Apr-17 23:00N 34°00' W 120°47'3 5.2
2018-Apr-17 22:30N 33°59' W 120°44'3 5.2
2018-Apr-17 22:00N 33°57' W 120°41'2 5.0
2018-Apr-17 21:30N 33°56' W 120°39'3 6.2
2018-Apr-17 21:00N 33°55' W 120°36'3 6.6
2018-Apr-17 20:30N 33°53' W 120°32'3 6.6
2018-Apr-17 19:59N 33°51' W 120°28'3 6.8
2018-Apr-17 19:30N 33°50' W 120°25'3 6.6
2018-Apr-17 19:00N 33°48' W 120°22'3 6.6
2018-Apr-17 18:30N 33°46' W 120°18'3 6.9
2018-Apr-17 18:00N 33°45' W 120°15'3 6.6
2018-Apr-17 17:29N 33°43' W 120°11'6 6.9
2018-Apr-17 16:36N 33°43' W 120°03'1 7.6
2018-Apr-17 16:25N 33°43' W 120°02'3 7.8
2018-Apr-17 16:01N 33°43' W 119°58'5 8.4
2018-Apr-17 15:28N 33°43' W 119°53'4 7.9
2018-Apr-17 15:00N 33°43' W 119°48'4 7.4
2018-Apr-17 14:30N 33°43' W 119°44'4 7.4
2018-Apr-17 13:59N 33°43' W 119°39'3 6.7
2018-Apr-17 13:29N 33°43' W 119°35'3 6.6
2018-Apr-17 13:00N 33°43' W 119°31'3 6.1
2018-Apr-17 12:30N 33°42' W 119°28'3 5.9
2018-Apr-17 12:00N 33°42' W 119°24'3 6.2
2018-Apr-17 11:30N 33°42' W 119°20'3 6.6
2018-Apr-17 11:00N 33°42' W 119°16'3 6.5
2018-Apr-17 10:29N 33°42' W 119°12'3 5.9
2018-Apr-17 10:00N 33°41' W 119°09'3 5.6
2018-Apr-17 09:30N 33°41' W 119°06'3 5.9
2018-Apr-17 09:00N 33°41' W 119°02'3 5.8
2018-Apr-17 08:30N 33°41' W 118°59'3 5.7
2018-Apr-17 07:59N 33°41' W 118°55'30 5.1
2018-Apr-17 02:04N 33°38' W 118°19'1 4.0
2018-Apr-17 01:55N 33°38' W 118°18'2 3.6
2018-Apr-17 01:28N 33°40' W 118°17'2 5.1
2018-Apr-17 01:00N 33°42' W 118°15'2 3.7
2018-Apr-17 00:30N 33°43' W 118°16'3 5.1
2018-Apr-17 00:00N 33°46' W 118°16'0 0.1
2018-Apr-16 23:30N 33°46' W 118°16'0 0.0
2018-Apr-16 23:00N 33°46' W 118°16'0 0.3
2018-Apr-16 22:30N 33°46' W 118°16'2 4.8
2018-Apr-16 22:00N 33°43' W 118°16'3 6.2
2018-Apr-16 21:31N 33°45' W 118°13'1 1.8
2018-Apr-16 20:59N 33°46' W 118°13'0 0.0
2018-Apr-16 20:29N 33°46' W 118°13'0 0.0
2018-Apr-16 19:59N 33°46' W 118°13'0 0.0
2018-Apr-16 19:26N 33°46' W 118°13'0 0.0
2018-Apr-16 18:56N 33°46' W 118°13'0 0.0
2018-Apr-16 18:29N 33°46' W 118°13'0 0.0
2018-Apr-16 17:59N 33°46' W 118°13'0 0.0
2018-Apr-16 17:29N 33°46' W 118°13'0 0.0
2018-Apr-16 16:59N 33°46' W 118°13'0 0.0
2018-Apr-16 16:29N 33°46' W 118°13'0 0.0
2018-Apr-16 15:59N 33°46' W 118°13'0 0.0
2018-Apr-16 15:29N 33°46' W 118°13'0 0.0
2018-Apr-16 14:59N 33°46' W 118°13'0 0.0
2018-Apr-16 14:29N 33°46' W 118°13'0 0.0
2018-Apr-16 13:59N 33°46' W 118°13'0 0.0
2018-Apr-16 13:29N 33°46' W 118°13'0 0.0
2018-Apr-16 12:50N 33°46' W 118°13'0 0.0
2018-Apr-16 12:17N 33°46' W 118°13'0 0.0
2018-Apr-16 11:50N 33°46' W 118°13'0 0.0
2018-Apr-16 11:29N 33°46' W 118°13'0 0.0
2018-Apr-16 10:59N 33°46' W 118°13'0 0.0
2018-Apr-16 10:29N 33°46' W 118°13'0 0.0
2018-Apr-16 09:59N 33°46' W 118°13'0 0.0
2018-Apr-16 09:26N 33°46' W 118°13'0 0.0
2018-Apr-16 08:56N 33°46' W 118°13'0 0.0
2018-Apr-16 08:29N 33°46' W 118°13'0 0.0
2018-Apr-16 07:59N 33°46' W 118°13'0 0.0
2018-Apr-16 07:29N 33°46' W 118°13'0 0.0
2018-Apr-16 06:59N 33°46' W 118°13'0 0.0
2018-Apr-16 06:26N 33°46' W 118°13'0 0.0
2018-Apr-16 05:56N 33°46' W 118°13'0 0.0
2018-Apr-16 05:29N 33°46' W 118°13'0 0.0
2018-Apr-16 04:53N 33°46' W 118°13'0 0.0
2018-Apr-16 04:26N 33°46' W 118°13'0 0.0
2018-Apr-16 03:59N 33°46' W 118°13'0 0.0
2018-Apr-16 03:26N 33°46' W 118°13'0 0.0
2018-Apr-16 02:59N 33°46' W 118°13'0 0.0
2018-Apr-16 02:29N 33°46' W 118°13'0 0.0
2018-Apr-16 01:59N 33°46' W 118°13'0 0.0
2018-Apr-16 01:29N 33°46' W 118°13'0 0.0
2018-Apr-16 00:59N 33°46' W 118°13'0 0.0
2018-Apr-16 00:29N 33°46' W 118°13'0 0.0
2018-Apr-15 23:59N 33°46' W 118°13'0 0.0
2018-Apr-15 23:29N 33°46' W 118°13'0 0.0
2018-Apr-15 22:59N 33°46' W 118°13'0 0.0
2018-Apr-15 22:29N 33°46' W 118°13'0 0.0
2018-Apr-15 21:59N 33°46' W 118°13'  
Track history (hours):
 
Tides and Currents Weather Stations Pressure Air Temp Water Temp Dewpoint Dewpoint Depression Visibility Wind Speed Wind Dir Waves Ship Positions

Mikiona

Owner: Sause Bros Inc, Coos Bay, OR. More information available from US FCC via Universal Licensing System and Coast Guard Vessel Documentation Center.

Last reported at 2018-Apr-25 21:58 UTC. Time now 2018-Apr-25 22:04 UTC.
Position N 33°46' W 118°13'.

Length 38 m; draft 4.5 m.

Type: Towing. MMSI: 367153070.

Date/timePositionNaut miles runAvg speedWind from/ knotsBaromVisibWave heightAir tempDewpointWater temp
2018-Apr-25 21:58N 33°46' W 118°13'0 0.0
2018-Apr-25 21:28N 33°46' W 118°13'0 0.0
2018-Apr-25 20:55N 33°46' W 118°13'0 0.0
2018-Apr-25 20:28N 33°46' W 118°13'0 0.0
2018-Apr-25 19:55N 33°46' W 118°13'0 0.0
2018-Apr-25 19:28N 33°46' W 118°13'0 0.0
2018-Apr-25 18:58N 33°46' W 118°13'0 0.0
2018-Apr-25 18:28N 33°46' W 118°13'0 0.0
2018-Apr-25 17:58N 33°46' W 118°13'0 0.0
2018-Apr-25 17:28N 33°46' W 118°13'0 0.0
2018-Apr-25 16:55N 33°46' W 118°13'0 0.0
2018-Apr-25 16:28N 33°46' W 118°13'0 0.0
2018-Apr-25 15:55N 33°46' W 118°13'0 0.0
2018-Apr-25 15:28N 33°46' W 118°13'0 0.1
2018-Apr-25 15:00N 33°46' W 118°13'3 6.1
2018-Apr-25 14:30N 33°43' W 118°14'3 5.5
2018-Apr-25 14:00N 33°45' W 118°16'1 1.4
2018-Apr-25 13:30N 33°46' W 118°16'1 1.1
2018-Apr-25 13:01N 33°45' W 118°16'2 3.5
2018-Apr-25 12:30N 33°44' W 118°16'2 2.9
2018-Apr-25 11:47N 33°44' W 118°14'0 0.2
2018-Apr-25 11:29N 33°44' W 118°14'0 0.2
2018-Apr-25 10:59N 33°44' W 118°14'0 0.0
2018-Apr-25 10:30N 33°44' W 118°14'0 0.0
2018-Apr-25 10:00N 33°44' W 118°14'0 0.0
2018-Apr-25 09:12N 33°44' W 118°14'0 0.1
2018-Apr-25 08:51N 33°44' W 118°14'0 0.0
2018-Apr-25 08:24N 33°44' W 118°14'0 0.0
2018-Apr-25 07:45N 33°44' W 118°14'0 0.1
2018-Apr-25 07:21N 33°44' W 118°14'0 0.0
2018-Apr-25 06:57N 33°44' W 118°14'0 0.0
2018-Apr-25 06:30N 33°44' W 118°14'0 0.0
2018-Apr-25 05:54N 33°44' W 118°14'0 0.0
2018-Apr-25 05:30N 33°44' W 118°14'0 0.0
2018-Apr-25 05:00N 33°44' W 118°14'0 0.1
2018-Apr-25 04:27N 33°44' W 118°14'0 0.1
2018-Apr-25 03:57N 33°44' W 118°14'0 0.0
2018-Apr-25 03:30N 33°44' W 118°14'0 0.0
2018-Apr-25 02:57N 33°44' W 118°14'0 0.0
2018-Apr-25 02:30N 33°44' W 118°14'0 0.0
2018-Apr-25 02:00N 33°44' W 118°14'0 0.0
2018-Apr-25 01:30N 33°44' W 118°14'0 0.0
2018-Apr-25 01:00N 33°44' W 118°14'0 0.0
2018-Apr-25 00:30N 33°44' W 118°14'0 0.0
2018-Apr-25 00:00N 33°44' W 118°14'0 0.0
2018-Apr-24 23:30N 33°44' W 118°14'0 0.0
2018-Apr-24 23:00N 33°44' W 118°14'0 0.0
2018-Apr-24 22:30N 33°44' W 118°14'0 0.0
2018-Apr-24 22:00N 33°44' W 118°14'0 0.0
2018-Apr-24 21:30N 33°44' W 118°14'0 0.3
2018-Apr-24 21:00N 33°44' W 118°14'0 0.0
2018-Apr-24 20:30N 33°44' W 118°14'0 0.0
2018-Apr-24 20:00N 33°44' W 118°14'0 0.1
2018-Apr-24 19:30N 33°44' W 118°14'1 1.1
2018-Apr-24 19:00N 33°44' W 118°13'2 5.0
2018-Apr-24 18:30N 33°43' W 118°11'4 7.6
2018-Apr-24 18:00N 33°39' W 118°12'19 7.8
2018-Apr-24 15:32N 33°36' W 118°34'0 7.8
2018-Apr-24 15:29N 33°36' W 118°35'4 7.8
2018-Apr-24 15:00N 33°36' W 118°39'4 8.1
2018-Apr-24 14:30N 33°37' W 118°44'4 8.5
2018-Apr-24 14:00N 33°37' W 118°49'4 8.3
2018-Apr-24 13:30N 33°37' W 118°54'4 7.8
2018-Apr-24 13:00N 33°38' W 118°59'4 8.3
2018-Apr-24 12:30N 33°38' W 119°04'4 8.4
2018-Apr-24 11:59N 33°39' W 119°09'4 8.5
2018-Apr-24 11:30N 33°39' W 119°14'4 8.6
2018-Apr-24 11:00N 33°39' W 119°19'4 8.5
2018-Apr-24 10:30N 33°40' W 119°24'4 8.3
2018-Apr-24 10:00N 33°40' W 119°29'4 8.1
2018-Apr-24 09:29N 33°40' W 119°34'4 7.8
2018-Apr-24 09:00N 33°41' W 119°39'4 8.1
2018-Apr-24 08:30N 33°41' W 119°43'4 8.1
2018-Apr-24 08:00N 33°41' W 119°48'4 8.0
2018-Apr-24 07:29N 33°42' W 119°53'4 8.4
2018-Apr-24 07:00N 33°42' W 119°58'4 8.6
2018-Apr-24 06:30N 33°42' W 120°03'5 8.4
2018-Apr-24 05:57N 33°43' W 120°09'4 8.5
2018-Apr-24 05:30N 33°44' W 120°13'4 8.4
2018-Apr-24 05:00N 33°46' W 120°18'4 8.3
2018-Apr-24 04:30N 33°48' W 120°22'5 8.1
2018-Apr-24 03:57N 33°50' W 120°27'4 8.0
2018-Apr-24 03:27N 33°52' W 120°31'4 8.2
2018-Apr-24 03:00N 33°54' W 120°35'4 8.6
2018-Apr-24 02:30N 33°56' W 120°39'4 9.1
2018-Apr-24 02:00N 33°59' W 120°44'4 8.6
2018-Apr-24 01:30N 34°01' W 120°48'4 8.8
2018-Apr-24 01:00N 34°04' W 120°52'4 8.9
2018-Apr-24 00:30N 34°08' W 120°55'5 9.0
2018-Apr-24 00:00N 34°11' W 120°58'5 9.2
2018-Apr-23 23:30N 34°15' W 121°01'5 9.2
2018-Apr-23 23:00N 34°19' W 121°04'4 8.7
2018-Apr-23 22:30N 34°22' W 121°08'4 8.5
2018-Apr-23 22:00N 34°26' W 121°11'4 8.6
2018-Apr-23 21:30N 34°30' W 121°13'4 8.6
2018-Apr-23 21:00N 34°33' W 121°15'4 8.2
2018-Apr-23 20:30N 34°37' W 121°18'4 8.4
2018-Apr-23 20:00N 34°40' W 121°21'4 8.9
2018-Apr-23 19:30N 34°44' W 121°24'5 9.0
2018-Apr-23 19:00N 34°48' W 121°27'6 9.0
2018-Apr-23 18:18N 34°53' W 121°31'3 8.9
2018-Apr-23 18:00N 34°55' W 121°33'4 8.8
2018-Apr-23 17:30N 34°59' W 121°36'4 8.6
2018-Apr-23 17:00N 35°03' W 121°38'4 8.5
2018-Apr-23 16:30N 35°06' W 121°41'4 8.2
2018-Apr-23 16:00N 35°10' W 121°44'21 8.5
2018-Apr-23 13:33N 35°27' W 121°58'1 8.8
2018-Apr-23 13:25N 35°28' W 121°59'24 8.5
2018-Apr-23 10:38N 35°47' W 122°16'1 8.6
2018-Apr-23 10:30N 35°48' W 122°17'5 8.7
2018-Apr-23 09:54N 35°53' W 122°20'3 8.4
2018-Apr-23 09:30N 35°56' W 122°22'5 8.4
2018-Apr-23 08:54N 35°60' W 122°26'3 8.4
2018-Apr-23 08:29N 36°03' W 122°28'4 8.3
2018-Apr-23 08:00N 36°06' W 122°31'22 8.2
2018-Apr-23 05:19N 36°26' W 122°41'3 8.6
2018-Apr-23 05:00N 36°29' W 122°42'4 8.4
2018-Apr-23 04:30N 36°33' W 122°44'4 8.2
2018-Apr-23 04:00N 36°37' W 122°46'4 8.6
2018-Apr-23 03:30N 36°41' W 122°48'4 8.5
2018-Apr-23 03:00N 36°44' W 122°51'4 8.3
2018-Apr-23 02:30N 36°48' W 122°53'4 8.5
2018-Apr-23 02:00N 36°52' W 122°55'6 8.7
2018-Apr-23 01:16N 36°58' W 122°58'2 8.4
2018-Apr-23 01:00N 36°60' W 122°59'4 8.3
2018-Apr-23 00:30N 37°04' W 123°00'4 8.4
2018-Apr-23 00:00N 37°08' W 123°01'4 8.4
2018-Apr-22 23:30N 37°12' W 123°02'4 8.4
2018-Apr-22 23:00N 37°16' W 123°03'4 8.2
2018-Apr-22 22:30N 37°20' W 123°03'4 8.3
2018-Apr-22 22:00N 37°25' W 123°04'4 8.3
2018-Apr-22 21:30N 37°29' W 123°04'4 8.3
2018-Apr-22 21:00N 37°33' W 123°04'3 6.9
2018-Apr-22 20:30N 37°36' W 123°02'4 7.6
2018-Apr-22 19:59N 37°38' W 122°58'4 7.6
2018-Apr-22 19:29N 37°40' W 122°54'4 7.6
2018-Apr-22 19:00N 37°42' W 122°50'4 7.2
2018-Apr-22 18:30N 37°44' W 122°46'3 6.2
2018-Apr-22 18:00N 37°45' W 122°43'3 6.9
2018-Apr-22 17:30N 37°46' W 122°38'4 7.6
2018-Apr-22 17:00N 37°47' W 122°34'5 9.7
2018-Apr-22 16:30N 37°49' W 122°28'4 7.4
2018-Apr-22 16:00N 37°52' W 122°25'2 3.6
2018-Apr-22 15:31N 37°54' W 122°26'1 2.0
2018-Apr-22 15:00N 37°55' W 122°25'1 1.9
2018-Apr-22 14:30N 37°55' W 122°25'0 0.5
2018-Apr-22 14:00N 37°55' W 122°24'0 0.1
2018-Apr-22 13:29N 37°55' W 122°25'0 0.0
2018-Apr-22 12:59N 37°55' W 122°25'0 0.0
2018-Apr-22 12:29N 37°55' W 122°25'0 0.0
2018-Apr-22 11:59N 37°55' W 122°25'0 0.0
2018-Apr-22 11:29N 37°55' W 122°25'0 0.0
2018-Apr-22 10:59N 37°55' W 122°25'0 0.0
2018-Apr-22 10:29N 37°55' W 122°25'0 0.0
2018-Apr-22 09:59N 37°55' W 122°25'0 0.0
2018-Apr-22 09:29N 37°55' W 122°25'0 0.0
2018-Apr-22 08:59N 37°55' W 122°25'0 0.0
2018-Apr-22 08:29N 37°55' W 122°25'0 0.0
2018-Apr-22 07:56N 37°55' W 122°25'0 0.0
2018-Apr-22 07:29N 37°55' W 122°25'0 0.0
2018-Apr-22 06:59N 37°55' W 122°25'0 0.0
2018-Apr-22 06:26N 37°55' W 122°25'0 0.0
2018-Apr-22 05:59N 37°55' W 122°25'0 0.0
2018-Apr-22 05:29N 37°55' W 122°25'0 0.0
2018-Apr-22 04:59N 37°55' W 122°25'0 0.0
2018-Apr-22 04:26N 37°55' W 122°25'0 0.0
2018-Apr-22 03:56N 37°55' W 122°25'0 0.0
2018-Apr-22 03:29N 37°55' W 122°25'0 0.0
2018-Apr-22 02:59N 37°55' W 122°25'0 0.0
2018-Apr-22 02:29N 37°55' W 122°25'0 0.0
2018-Apr-22 01:59N 37°55' W 122°25'0 0.0
2018-Apr-22 01:29N 37°55' W 122°25'0 0.0
2018-Apr-22 00:59N 37°55' W 122°25'0 0.0
2018-Apr-22 00:29N 37°55' W 122°25'0 0.0
2018-Apr-21 23:59N 37°55' W 122°25'0 0.0
2018-Apr-21 23:26N 37°55' W 122°25'0 0.0
2018-Apr-21 22:59N 37°55' W 122°25'0 0.0
2018-Apr-21 22:26N 37°55' W 122°25'0 0.0
2018-Apr-21 21:59N 37°55' W 122°25'0 0.0
2018-Apr-21 21:29N 37°55' W 122°25'0 0.0
2018-Apr-21 20:53N 37°55' W 122°25'0 0.0
2018-Apr-21 20:29N 37°55' W 122°25'0 0.0
2018-Apr-21 19:56N 37°55' W 122°25'0 0.0
2018-Apr-21 19:29N 37°55' W 122°25'0 0.0
2018-Apr-21 18:59N 37°55' W 122°25'0 0.0
2018-Apr-21 18:29N 37°55' W 122°25'0 0.0
2018-Apr-21 17:53N 37°55' W 122°25'0 0.0
2018-Apr-21 17:26N 37°55' W 122°25'0 0.2
2018-Apr-21 17:00N 37°55' W 122°24'0 0.8
2018-Apr-21 16:30N 37°55' W 122°25'1 1.2
2018-Apr-21 16:00N 37°55' W 122°25'1 2.6
2018-Apr-21 15:30N 37°54' W 122°23'1 2.5
2018-Apr-21 15:00N 37°55' W 122°22'0 0.0
2018-Apr-21 14:30N 37°55' W 122°22'0 0.0
2018-Apr-21 14:00N 37°55' W 122°22'0 0.0
2018-Apr-21 13:30N 37°55' W 122°22'0 0.0
2018-Apr-21 13:00N 37°55' W 122°22'0 0.0
2018-Apr-21 12:30N 37°55' W 122°22'0 0.0
2018-Apr-21 12:00N 37°55' W 122°22'0 0.0
2018-Apr-21 11:30N 37°55' W 122°22'0 0.0
2018-Apr-21 11:00N 37°55' W 122°22'0 0.0
2018-Apr-21 10:30N 37°55' W 122°22'0 0.0
2018-Apr-21 10:00N 37°55' W 122°22'0 0.0
2018-Apr-21 09:30N 37°55' W 122°22'0 0.0
2018-Apr-21 09:00N 37°55' W 122°22'0 0.0
2018-Apr-21 08:30N 37°55' W 122°22'0 0.0
2018-Apr-21 08:00N 37°55' W 122°22'0 0.0
2018-Apr-21 07:30N 37°55' W 122°22'0 0.0
2018-Apr-21 07:00N 37°55' W 122°22'0 0.0
2018-Apr-21 06:30N 37°55' W 122°22'0 0.0
2018-Apr-21 06:00N 37°55' W 122°22'0 0.0
2018-Apr-21 05:30N 37°55' W 122°22'0 0.0
2018-Apr-21 05:00N 37°55' W 122°22'0 0.0
2018-Apr-21 04:30N 37°55' W 122°22'0 0.0
2018-Apr-21 04:00N 37°55' W 122°22'0 0.0
2018-Apr-21 03:30N 37°55' W 122°22'0 0.0
2018-Apr-21 03:00N 37°55' W 122°22'0 0.0
2018-Apr-21 02:30N 37°55' W 122°22'0 0.0
2018-Apr-21 02:00N 37°55' W 122°22'0 0.0
2018-Apr-21 01:30N 37°55' W 122°22'0 0.0
2018-Apr-21 01:00N 37°55' W 122°22'0 0.0
2018-Apr-21 00:30N 37°55' W 122°22'0 0.0
2018-Apr-21 00:00N 37°55' W 122°22'0 0.0
2018-Apr-20 23:30N 37°55' W 122°22'0 0.0
2018-Apr-20 23:00N 37°55' W 122°22'0 0.0
2018-Apr-20 22:31N 37°55' W 122°22'0 0.0
2018-Apr-20 22:01N 37°55' W 122°22'0 0.0
2018-Apr-20 21:30N 37°55' W 122°22'0 0.0
2018-Apr-20 21:00N 37°55' W 122°22'0 0.0
2018-Apr-20 20:30N 37°55' W 122°22'0 0.0
2018-Apr-20 20:00N 37°55' W 122°22'0 0.0
2018-Apr-20 19:30N 37°55' W 122°22'0 0.0
2018-Apr-20 19:00N 37°55' W 122°22'0 0.0
2018-Apr-20 18:30N 37°55' W 122°22'0 0.0
2018-Apr-20 18:00N 37°55' W 122°22'0 0.0
2018-Apr-20 17:30N 37°55' W 122°22'0 0.0
2018-Apr-20 17:00N 37°55' W 122°22'0 0.0
2018-Apr-20 16:30N 37°55' W 122°22'0 0.0
2018-Apr-20 16:00N 37°55' W 122°22'0 0.0
2018-Apr-20 15:30N 37°55' W 122°22'0 0.0
2018-Apr-20 15:00N 37°55' W 122°22'0 0.0
2018-Apr-20 14:30N 37°55' W 122°22'0 0.0
2018-Apr-20 14:00N 37°55' W 122°22'0 0.0
2018-Apr-20 13:30N 37°55' W 122°22'0 0.0
2018-Apr-20 13:00N 37°55' W 122°22'0 0.0
2018-Apr-20 12:30N 37°55' W 122°22'0 0.0
2018-Apr-20 12:00N 37°55' W 122°22'0 0.0
2018-Apr-20 11:30N 37°55' W 122°22'0 0.0
2018-Apr-20 11:00N 37°55' W 122°22'0 0.0
2018-Apr-20 10:30N 37°55' W 122°22'0 0.0
2018-Apr-20 10:00N 37°55' W 122°22'0 0.0
2018-Apr-20 09:30N 37°55' W 122°22'0 0.0
2018-Apr-20 09:00N 37°55' W 122°22'0 0.0
2018-Apr-20 08:30N 37°55' W 122°22'0 0.0
2018-Apr-20 08:00N 37°55' W 122°22'0 0.0
2018-Apr-20 07:30N 37°55' W 122°22'0 0.0
2018-Apr-20 07:00N 37°55' W 122°22'0 0.0
2018-Apr-20 06:30N 37°55' W 122°22'0 0.0
2018-Apr-20 06:00N 37°55' W 122°22'0 0.0
2018-Apr-20 05:30N 37°55' W 122°22'0 0.0
2018-Apr-20 05:00N 37°55' W 122°22'0 0.0
2018-Apr-20 04:30N 37°55' W 122°22'0 0.0
2018-Apr-20 04:00N 37°55' W 122°22'0 0.0
2018-Apr-20 03:31N 37°55' W 122°22'0 0.0
2018-Apr-20 03:00N 37°55' W 122°22'0 0.0
2018-Apr-20 02:30N 37°55' W 122°22'0 0.0
2018-Apr-20 02:00N 37°55' W 122°22'0 0.0
2018-Apr-20 01:30N 37°55' W 122°22'0 0.0
2018-Apr-20 01:00N 37°55' W 122°22'0 0.0
2018-Apr-20 00:30N 37°55' W 122°22'0 0.0
2018-Apr-20 00:00N 37°55' W 122°22'0 0.0
2018-Apr-19 23:30N 37°55' W 122°22'0 0.0
2018-Apr-19 23:00N 37°55' W 122°22'0 0.0
2018-Apr-19 22:30N 37°55' W 122°22'0 0.0
2018-Apr-19 22:00N 37°55' W 122°22'0 0.0
2018-Apr-19 21:30N 37°55' W 122°22'0 0.0
2018-Apr-19 21:00N 37°55' W 122°22'0 0.0
2018-Apr-19 20:30N 37°55' W 122°22'0 0.0
2018-Apr-19 20:00N 37°55' W 122°22'0 0.0
2018-Apr-19 19:30N 37°55' W 122°22'0 0.0
2018-Apr-19 19:00N 37°55' W 122°22'0 0.3
2018-Apr-19 18:30N 37°55' W 122°22'2 3.5
2018-Apr-19 18:00N 37°54' W 122°24'1 2.9
2018-Apr-19 17:30N 37°55' W 122°26'0 0.3
2018-Apr-19 17:00N 37°54' W 122°26'0 0.0
2018-Apr-19 16:30N 37°54' W 122°26'0 0.1
2018-Apr-19 16:00N 37°55' W 122°26'1 1.1
2018-Apr-19 15:30N 37°54' W 122°26'0 0.0
2018-Apr-19 15:00N 37°54' W 122°26'0 0.1
2018-Apr-19 14:30N 37°54' W 122°26'0 0.1
2018-Apr-19 14:00N 37°54' W 122°26'0 0.1
2018-Apr-19 13:31N 37°54' W 122°26'0 0.1
2018-Apr-19 13:00N 37°54' W 122°26'3 6.6
2018-Apr-19 12:30N 37°51' W 122°24'3 6.6
2018-Apr-19 12:00N 37°49' W 122°28'3 5.2
2018-Apr-19 11:30N 37°48' W 122°31'4 7.3
2018-Apr-19 11:00N 37°46' W 122°35'4 8.4
2018-Apr-19 10:30N 37°45' W 122°40'4 8.8
2018-Apr-19 10:00N 37°42' W 122°44'4 7.9
2018-Apr-19 09:30N 37°40' W 122°48'4 7.9
2018-Apr-19 09:00N 37°37' W 122°52'4 8.2
2018-Apr-19 08:30N 37°35' W 122°56'4 8.3
2018-Apr-19 08:00N 37°32' W 123°00'198 7.7
2018-Apr-18 06:23N 34°34' W 121°14'3 6.0
2018-Apr-18 05:52N 34°31' W 121°12'4 5.9
2018-Apr-18 05:13N 34°28' W 121°10'1 5.7
2018-Apr-18 05:00N 34°27' W 121°09'3 5.3
2018-Apr-18 04:27N 34°25' W 121°07'2 5.1
2018-Apr-18 04:00N 34°23' W 121°06'3 5.3
2018-Apr-18 03:30N 34°20' W 121°04'3 5.4
2018-Apr-18 03:00N 34°18' W 121°02'3 5.3
2018-Apr-18 02:30N 34°16' W 121°01'3 5.3
2018-Apr-18 02:00N 34°14' W 120°59'3 5.5
2018-Apr-18 01:30N 34°11' W 120°57'3 5.6
2018-Apr-18 01:00N 34°09' W 120°55'3 5.8
2018-Apr-18 00:30N 34°06' W 120°54'3 5.9
2018-Apr-18 00:00N 34°04' W 120°52'3 5.8
2018-Apr-17 23:30N 34°02' W 120°49'3 5.3
2018-Apr-17 23:00N 34°00' W 120°47'3 5.2
2018-Apr-17 22:30N 33°59' W 120°44'3 5.2
2018-Apr-17 22:00N 33°57' W 120°41'2 5.0
2018-Apr-17 21:30N 33°56' W 120°39'3 6.2
2018-Apr-17 21:00N 33°55' W 120°36'3 6.6
2018-Apr-17 20:30N 33°53' W 120°32'3 6.6
2018-Apr-17 19:59N 33°51' W 120°28'3 6.8
2018-Apr-17 19:30N 33°50' W 120°25'3 6.6
2018-Apr-17 19:00N 33°48' W 120°22'3 6.6
2018-Apr-17 18:30N 33°46' W 120°18'3 6.9
2018-Apr-17 18:00N 33°45' W 120°15'3 6.6
2018-Apr-17 17:29N 33°43' W 120°11'6 6.9
2018-Apr-17 16:36N 33°43' W 120°03'1 7.6
2018-Apr-17 16:25N 33°43' W 120°02'3 7.8
2018-Apr-17 16:01N 33°43' W 119°58'5 8.4
2018-Apr-17 15:28N 33°43' W 119°53'4 7.9
2018-Apr-17 15:00N 33°43' W 119°48'4 7.4
2018-Apr-17 14:30N 33°43' W 119°44'4 7.4
2018-Apr-17 13:59N 33°43' W 119°39'3 6.7
2018-Apr-17 13:29N 33°43' W 119°35'3 6.6
2018-Apr-17 13:00N 33°43' W 119°31'3 6.1
2018-Apr-17 12:30N 33°42' W 119°28'3 5.9
2018-Apr-17 12:00N 33°42' W 119°24'3 6.2
2018-Apr-17 11:30N 33°42' W 119°20'3 6.6
2018-Apr-17 11:00N 33°42' W 119°16'3 6.5
2018-Apr-17 10:29N 33°42' W 119°12'3 5.9
2018-Apr-17 10:00N 33°41' W 119°09'3 5.6
2018-Apr-17 09:30N 33°41' W 119°06'3 5.9
2018-Apr-17 09:00N 33°41' W 119°02'3 5.8
2018-Apr-17 08:30N 33°41' W 118°59'3 5.7
2018-Apr-17 07:59N 33°41' W 118°55'30 5.1
2018-Apr-17 02:04N 33°38' W 118°19'1 4.0
2018-Apr-17 01:55N 33°38' W 118°18'2 3.6
2018-Apr-17 01:28N 33°40' W 118°17'2 5.1
2018-Apr-17 01:00N 33°42' W 118°15'2 3.7
2018-Apr-17 00:30N 33°43' W 118°16'3 5.1
2018-Apr-17 00:00N 33°46' W 118°16'0 0.1
2018-Apr-16 23:30N 33°46' W 118°16'0 0.0
2018-Apr-16 23:00N 33°46' W 118°16'0 0.3
2018-Apr-16 22:30N 33°46' W 118°16'2 4.8
2018-Apr-16 22:00N 33°43' W 118°16'3 6.2
2018-Apr-16 21:31N 33°45' W 118°13'1 1.8
2018-Apr-16 20:59N 33°46' W 118°13'0 0.0
2018-Apr-16 20:29N 33°46' W 118°13'0 0.0
2018-Apr-16 19:59N 33°46' W 118°13'0 0.0
2018-Apr-16 19:26N 33°46' W 118°13'0 0.0
2018-Apr-16 18:56N 33°46' W 118°13'0 0.0
2018-Apr-16 18:29N 33°46' W 118°13'0 0.0
2018-Apr-16 17:59N 33°46' W 118°13'0 0.0
2018-Apr-16 17:29N 33°46' W 118°13'0 0.0
2018-Apr-16 16:59N 33°46' W 118°13'0 0.0
2018-Apr-16 16:29N 33°46' W 118°13'0 0.0
2018-Apr-16 15:59N 33°46' W 118°13'0 0.0
2018-Apr-16 15:29N 33°46' W 118°13'0 0.0
2018-Apr-16 14:59N 33°46' W 118°13'0 0.0
2018-Apr-16 14:29N 33°46' W 118°13'0 0.0
2018-Apr-16 13:59N 33°46' W 118°13'0 0.0
2018-Apr-16 13:29N 33°46' W 118°13'0 0.0
2018-Apr-16 12:50N 33°46' W 118°13'0 0.0
2018-Apr-16 12:17N 33°46' W 118°13'0 0.0
2018-Apr-16 11:50N 33°46' W 118°13'0 0.0
2018-Apr-16 11:29N 33°46' W 118°13'0 0.0
2018-Apr-16 10:59N 33°46' W 118°13'0 0.0
2018-Apr-16 10:29N 33°46' W 118°13'0 0.0
2018-Apr-16 09:59N 33°46' W 118°13'0 0.0
2018-Apr-16 09:26N 33°46' W 118°13'0 0.0
2018-Apr-16 08:56N 33°46' W 118°13'0 0.0
2018-Apr-16 08:29N 33°46' W 118°13'0 0.0
2018-Apr-16 07:59N 33°46' W 118°13'0 0.0
2018-Apr-16 07:29N 33°46' W 118°13'0 0.0
2018-Apr-16 06:59N 33°46' W 118°13'0 0.0
2018-Apr-16 06:26N 33°46' W 118°13'0 0.0
2018-Apr-16 05:56N 33°46' W 118°13'0 0.0
2018-Apr-16 05:29N 33°46' W 118°13'0 0.0
2018-Apr-16 04:53N 33°46' W 118°13'0 0.0
2018-Apr-16 04:26N 33°46' W 118°13'0 0.0
2018-Apr-16 03:59N 33°46' W 118°13'0 0.0
2018-Apr-16 03:26N 33°46' W 118°13'0 0.0
2018-Apr-16 02:59N 33°46' W 118°13'0 0.0
2018-Apr-16 02:29N 33°46' W 118°13'0 0.0
2018-Apr-16 01:59N 33°46' W 118°13'0 0.0
2018-Apr-16 01:29N 33°46' W 118°13'0 0.0
2018-Apr-16 00:59N 33°46' W 118°13'0 0.0
2018-Apr-16 00:29N 33°46' W 118°13'0 0.0
2018-Apr-15 23:59N 33°46' W 118°13'0 0.0
2018-Apr-15 23:29N 33°46' W 118°13'0 0.0
2018-Apr-15 22:59N 33°46' W 118°13'0 0.0
2018-Apr-15 22:29N 33°46' W 118°13'0 0.0
2018-Apr-15 21:59N 33°46' W 118°13'  

Dump ship's entire track history